createdAt,value
2022-10-31T00:00:11.238Z,8.32
2022-10-31T00:03:05.681Z,8.32
2022-10-31T00:06:53.658Z,8.30
2022-10-31T00:09:25.408Z,8.21
2022-10-31T00:11:57.356Z,8.11
2022-10-31T00:14:27.714Z,8.04
2022-10-31T00:17:02.123Z,8.04
2022-10-31T00:19:31.723Z,8.12
2022-10-31T00:22:02.179Z,8.21
2022-10-31T00:24:31.199Z,8.30
2022-10-31T00:27:03.491Z,8.37
2022-10-31T00:29:32.446Z,8.44
2022-10-31T00:32:06.358Z,8.49
2022-10-31T00:34:39.536Z,8.54
2022-10-31T00:37:09.588Z,8.56
2022-10-31T00:39:43.093Z,8.52
2022-10-31T00:42:16.076Z,8.52
2022-10-31T00:44:48.431Z,8.56
2022-10-31T00:47:19.003Z,8.59
2022-10-31T00:52:47.530Z,8.66
2022-10-31T00:55:19.393Z,8.69
2022-10-31T00:57:49.451Z,8.71
2022-10-31T01:00:20.665Z,8.72
2022-10-31T01:02:53.164Z,8.71
2022-10-31T01:05:23.829Z,8.71
2022-10-31T01:07:58.987Z,8.70
2022-10-31T01:10:30.853Z,8.71
2022-10-31T01:13:00.502Z,8.66
2022-10-31T01:15:31.217Z,8.58
2022-10-31T01:18:03.020Z,8.53
2022-10-31T01:20:33.784Z,8.50
2022-10-31T01:23:06.498Z,8.50
2022-10-31T01:25:35.652Z,8.50
2022-10-31T01:28:05.265Z,8.53
2022-10-31T01:30:36.816Z,8.55
2022-10-31T01:33:07.594Z,8.56
2022-10-31T01:35:36.854Z,8.53
2022-10-31T01:38:08.337Z,8.53
2022-10-31T01:40:39.326Z,8.53
2022-10-31T01:43:16.064Z,8.54
2022-10-31T01:45:51.740Z,8.56
2022-10-31T01:48:24.334Z,8.58
2022-10-31T01:50:59.520Z,8.60
2022-10-31T01:53:30.911Z,8.61
2022-10-31T01:56:01.541Z,8.62
2022-10-31T01:58:33.647Z,8.62
2022-10-31T02:01:07.912Z,8.60
2022-10-31T02:03:39.074Z,8.56
2022-10-31T02:06:57.142Z,8.50
2022-10-31T02:09:27.975Z,8.34
2022-10-31T02:11:59.688Z,8.21
2022-10-31T02:14:34.816Z,8.19
2022-10-31T02:17:09.142Z,8.20
2022-10-31T02:20:22.712Z,8.21
2022-10-31T02:23:14.461Z,8.20
2022-10-31T02:25:49.359Z,8.20
2022-10-31T02:28:36.759Z,8.17
2022-10-31T02:31:26.394Z,8.18
2022-10-31T02:34:02.818Z,8.19
2022-10-31T02:36:42.583Z,8.20
2022-10-31T02:39:17.528Z,8.19
2022-10-31T02:42:05.882Z,8.17
2022-10-31T02:44:50.565Z,8.11
2022-10-31T02:47:27.383Z,8.04
2022-10-31T02:50:27.846Z,7.99
2022-10-31T02:59:54.791Z,7.80
2022-10-31T03:02:57.830Z,7.70
2022-10-31T03:05:47.977Z,7.56
2022-10-31T03:08:29.342Z,7.48
2022-10-31T03:11:09.722Z,7.48
2022-10-31T03:13:43.458Z,7.50
2022-10-31T03:16:29.620Z,7.54
2022-10-31T03:19:08.133Z,7.61
2022-10-31T03:21:57.502Z,7.70
2022-10-31T03:24:32.470Z,7.81
2022-10-31T03:27:05.200Z,7.91
2022-10-31T03:29:38.517Z,8.02
2022-10-31T03:32:31.786Z,8.17
2022-10-31T03:35:04.153Z,8.34
2022-10-31T03:37:37.897Z,8.50
2022-10-31T03:40:11.198Z,8.64
2022-10-31T03:42:45.084Z,8.78
2022-10-31T03:45:22.129Z,8.88
2022-10-31T03:47:56.788Z,8.92
2022-10-31T03:50:41.740Z,8.93
2022-10-31T03:53:17.924Z,8.93
2022-10-31T03:56:00.039Z,8.93
2022-10-31T03:58:40.648Z,8.94
2022-10-31T04:01:16.226Z,8.95
2022-10-31T04:03:47.024Z,8.99
2022-10-31T04:07:33.018Z,9.04
2022-10-31T04:10:08.943Z,9.11
2022-10-31T04:12:41.216Z,9.15
2022-10-31T04:15:23.112Z,9.18
2022-10-31T04:17:55.274Z,9.20
2022-10-31T04:20:35.150Z,9.24
2022-10-31T04:23:18.812Z,9.28
2022-10-31T04:25:48.472Z,9.30
2022-10-31T04:30:50.956Z,9.36
2022-10-31T04:33:21.565Z,9.40
2022-10-31T04:35:51.210Z,9.45
2022-10-31T04:38:21.369Z,9.47
2022-10-31T04:40:52.186Z,9.51
2022-10-31T04:43:46.654Z,9.56
2022-10-31T04:46:17.977Z,9.61
2022-10-31T04:48:51.657Z,9.65
2022-10-31T04:51:25.335Z,9.70
2022-10-31T04:53:55.867Z,9.75
2022-10-31T04:56:44.650Z,9.82
2022-10-31T04:59:20.923Z,9.86
2022-10-31T05:02:01.804Z,9.90
2022-10-31T05:04:43.249Z,9.93
2022-10-31T05:11:50.318Z,10.06
2022-10-31T05:14:46.104Z,10.09
2022-10-31T05:17:37.506Z,10.11
2022-10-31T05:20:44.571Z,10.15
2022-10-31T05:23:38.677Z,10.17
2022-10-31T05:26:09.519Z,10.18
2022-10-31T05:28:40.638Z,10.20
2022-10-31T05:31:13.552Z,10.23
2022-10-31T05:33:43.988Z,10.26
2022-10-31T05:36:34.781Z,10.27
2022-10-31T05:39:14.787Z,10.28
2022-10-31T05:41:45.809Z,10.30
2022-10-31T05:44:22.432Z,10.32
2022-10-31T05:47:09.948Z,10.34
2022-10-31T05:50:15.745Z,10.39
2022-10-31T05:53:04.532Z,10.42
2022-10-31T05:55:37.451Z,10.46
2022-10-31T05:58:46.849Z,10.49
2022-10-31T06:01:53.022Z,10.52
2022-10-31T06:04:52.540Z,10.54
2022-10-31T06:07:39.679Z,10.55
2022-10-31T06:10:14.890Z,10.56
2022-10-31T06:12:45.834Z,10.60
2022-10-31T06:15:35.385Z,10.60
2022-10-31T06:18:07.914Z,10.65
2022-10-31T06:20:42.879Z,10.72
2022-10-31T06:23:18.861Z,10.74
2022-10-31T06:25:52.638Z,10.79
2022-10-31T06:28:23.897Z,10.84
2022-10-31T06:31:05.139Z,10.93
2022-10-31T06:33:39.120Z,10.97
2022-10-31T06:36:17.341Z,11.30
2022-10-31T06:38:52.358Z,12.16
2022-10-31T06:41:25.921Z,12.78
2022-10-31T06:44:00.581Z,13.75
2022-10-31T06:47:02.029Z,14.73
2022-10-31T06:49:53.788Z,15.72
2022-10-31T06:52:26.238Z,16.40
2022-10-31T06:54:56.958Z,17.03
2022-10-31T06:57:28.326Z,17.62
2022-10-31T07:00:01.390Z,18.11
2022-10-31T07:03:06.437Z,17.92
2022-10-31T07:09:53.845Z,16.11
2022-10-31T07:12:30.370Z,15.61
2022-10-31T07:15:03.000Z,15.21
2022-10-31T07:17:32.081Z,14.85
2022-10-31T07:20:02.358Z,14.57
2022-10-31T07:22:37.933Z,14.34
2022-10-31T07:25:09.117Z,14.15
2022-10-31T07:27:57.840Z,14.07
2022-10-31T07:30:27.691Z,14.05
2022-10-31T07:32:59.585Z,14.05
2022-10-31T07:35:52.781Z,14.05
2022-10-31T07:38:23.823Z,14.04
2022-10-31T07:40:54.887Z,14.08
2022-10-31T07:43:25.089Z,14.14
2022-10-31T07:46:18.209Z,14.18
2022-10-31T07:49:04.631Z,14.18
2022-10-31T07:51:52.641Z,14.19
2022-10-31T07:54:56.834Z,14.23
2022-10-31T07:57:28.444Z,14.34
2022-10-31T08:00:00.131Z,14.99
2022-10-31T08:02:30.740Z,16.37
2022-10-31T08:05:26.020Z,18.40
2022-10-31T08:08:15.717Z,20.18
2022-10-31T08:10:47.831Z,21.46
2022-10-31T08:13:17.971Z,22.38
2022-10-31T08:15:51.961Z,22.68
2022-10-31T08:18:25.252Z,22.60
2022-10-31T08:20:55.486Z,23.10
2022-10-31T08:23:26.280Z,23.99
2022-10-31T08:25:56.669Z,24.68
2022-10-31T08:28:25.689Z,25.29
2022-10-31T08:30:55.977Z,25.68
2022-10-31T08:33:45.069Z,26.20
2022-10-31T08:36:23.290Z,26.67
2022-10-31T08:39:04.591Z,27.20
2022-10-31T08:41:37.379Z,27.64
2022-10-31T08:44:12.715Z,28.04
2022-10-31T08:46:45.988Z,28.33
2022-10-31T08:49:18.775Z,28.60
2022-10-31T08:51:50.725Z,28.52
2022-10-31T08:54:19.742Z,28.80
2022-10-31T08:57:18.543Z,29.12
2022-10-31T08:59:49.180Z,29.41
2022-10-31T09:02:24.673Z,29.76
2022-10-31T09:04:58.903Z,30.09
2022-10-31T09:08:01.912Z,30.37
2022-10-31T09:10:37.714Z,30.46
2022-10-31T09:13:12.637Z,30.79
2022-10-31T09:16:00.880Z,31.35
2022-10-31T09:18:33.497Z,31.61
2022-10-31T09:21:06.053Z,31.73
2022-10-31T09:23:35.200Z,31.88
2022-10-31T09:26:05.518Z,32.14
2022-10-31T09:28:46.364Z,32.18
2022-10-31T09:31:17.797Z,32.34
2022-10-31T09:33:55.499Z,32.35
2022-10-31T09:36:33.727Z,32.33
2022-10-31T09:39:04.098Z,32.27
2022-10-31T09:41:57.087Z,32.10
2022-10-31T09:44:48.102Z,31.93
2022-10-31T09:47:59.667Z,32.01
2022-10-31T09:50:43.984Z,32.27
2022-10-31T09:53:38.296Z,32.30
2022-10-31T09:56:19.270Z,32.39
2022-10-31T09:58:55.328Z,32.34
2022-10-31T10:01:33.275Z,32.18
2022-10-31T10:04:20.924Z,32.29
2022-10-31T10:12:16.424Z,31.26
2022-10-31T10:14:54.185Z,30.96
2022-10-31T10:17:40.669Z,30.80
2022-10-31T10:20:25.477Z,30.61
2022-10-31T10:23:21.745Z,30.50
2022-10-31T10:26:00.441Z,30.42
2022-10-31T10:28:39.593Z,30.39
2022-10-31T10:31:17.468Z,30.26
2022-10-31T10:33:59.826Z,30.20
2022-10-31T10:36:42.201Z,30.02
2022-10-31T10:39:32.440Z,29.82
2022-10-31T10:42:20.439Z,29.54
2022-10-31T10:45:10.981Z,29.35
2022-10-31T10:47:47.750Z,29.08
2022-10-31T10:50:34.670Z,28.69
2022-10-31T10:53:33.798Z,28.43
2022-10-31T10:56:24.084Z,28.17
2022-10-31T10:58:56.020Z,28.12
2022-10-31T11:01:27.059Z,28.16
2022-10-31T11:03:57.897Z,28.17
2022-10-31T11:11:32.240Z,27.13
2022-10-31T11:14:26.593Z,26.52
2022-10-31T11:17:10.685Z,25.82
2022-10-31T11:19:41.784Z,25.64
2022-10-31T11:22:20.278Z,25.73
2022-10-31T11:24:53.075Z,26.08
2022-10-31T11:27:26.547Z,26.16
2022-10-31T11:30:07.000Z,26.05
2022-10-31T11:32:36.293Z,25.65
2022-10-31T11:35:13.773Z,25.27
2022-10-31T11:37:47.013Z,25.17
2022-10-31T11:40:28.808Z,24.88
2022-10-31T11:43:01.617Z,24.30
2022-10-31T11:45:38.034Z,24.19
2022-10-31T11:48:19.561Z,24.23
2022-10-31T11:50:56.394Z,24.14
2022-10-31T11:53:32.423Z,23.84
2022-10-31T11:56:17.701Z,23.54
2022-10-31T11:59:03.962Z,23.54
2022-10-31T12:01:34.643Z,23.49
2022-10-31T12:04:10.997Z,23.18
2022-10-31T12:06:44.332Z,22.75
2022-10-31T12:09:24.355Z,22.73
2022-10-31T12:12:11.731Z,22.56
2022-10-31T12:15:01.592Z,22.26
2022-10-31T12:18:00.299Z,21.85
2022-10-31T12:20:59.173Z,21.66
2022-10-31T12:24:02.254Z,21.73
2022-10-31T12:27:03.010Z,21.46
2022-10-31T12:29:32.891Z,21.29
2022-10-31T12:32:45.594Z,21.40
2022-10-31T12:35:45.021Z,21.58
2022-10-31T12:38:19.766Z,21.69
2022-10-31T12:40:59.254Z,21.59
2022-10-31T12:43:43.387Z,21.25
2022-10-31T12:46:37.040Z,20.79
2022-10-31T12:49:44.583Z,20.35
2022-10-31T12:52:27.156Z,19.83
2022-10-31T12:55:26.334Z,19.66
2022-10-31T12:58:12.554Z,19.55
2022-10-31T13:00:49.036Z,19.37
2022-10-31T13:03:38.559Z,18.90
2022-10-31T13:06:18.425Z,18.31
2022-10-31T13:13:21.299Z,17.33
2022-10-31T13:16:03.288Z,16.82
2022-10-31T13:18:40.082Z,16.51
2022-10-31T13:21:21.795Z,16.16
2022-10-31T13:23:53.821Z,15.93
2022-10-31T13:26:48.049Z,15.77
2022-10-31T13:30:09.765Z,15.56
2022-10-31T13:32:53.386Z,15.38
2022-10-31T13:35:43.520Z,15.23
2022-10-31T13:38:32.370Z,15.04
2022-10-31T13:41:10.915Z,14.90
2022-10-31T13:48:43.016Z,14.71
2022-10-31T13:51:30.366Z,14.61
2022-10-31T13:54:11.208Z,14.50
2022-10-31T13:57:03.958Z,14.43
2022-10-31T13:59:39.496Z,14.39
2022-10-31T14:02:31.123Z,14.36
2022-10-31T14:08:55.230Z,14.21
2022-10-31T14:14:51.809Z,14.05
2022-10-31T14:17:35.186Z,13.94
2022-10-31T14:20:44.863Z,13.90
2022-10-31T14:24:17.059Z,13.85
2022-10-31T14:26:56.026Z,13.80
2022-10-31T14:29:33.285Z,13.78
2022-10-31T14:33:27.558Z,13.78
2022-10-31T14:50:17.887Z,13.56
2022-10-31T15:06:20.537Z,13.45
2022-10-31T15:10:40.385Z,13.44
2022-10-31T15:13:41.745Z,13.37
2022-10-31T15:26:40.358Z,13.17
2022-10-31T15:33:01.807Z,13.08
2022-10-31T15:35:34.299Z,13.08
2022-10-31T15:38:19.006Z,13.08
2022-10-31T15:41:02.006Z,13.10
2022-10-31T15:43:39.098Z,13.13
2022-10-31T15:46:27.926Z,13.12
2022-10-31T15:49:03.370Z,13.11
2022-10-31T15:51:36.217Z,13.12
2022-10-31T15:54:05.666Z,13.12
2022-10-31T15:56:36.057Z,13.11
2022-10-31T15:59:06.266Z,13.11
2022-10-31T16:01:37.243Z,13.10
2022-10-31T16:04:14.269Z,13.10
2022-10-31T16:06:44.888Z,13.09
2022-10-31T16:09:34.245Z,13.10
2022-10-31T16:12:21.439Z,13.10
2022-10-31T16:14:56.824Z,13.10
2022-10-31T16:17:28.074Z,13.09
2022-10-31T16:20:03.686Z,13.08
2022-10-31T16:22:38.671Z,13.07
2022-10-31T16:25:20.676Z,13.07
2022-10-31T16:27:54.750Z,13.06
2022-10-31T16:30:46.945Z,13.02
2022-10-31T16:33:31.587Z,12.95
2022-10-31T16:36:30.002Z,12.90
2022-10-31T16:38:58.420Z,12.93
2022-10-31T16:41:31.784Z,12.90
2022-10-31T16:44:05.921Z,12.88
2022-10-31T16:46:35.882Z,12.86
2022-10-31T16:49:07.457Z,12.87
2022-10-31T16:51:37.626Z,12.83
2022-10-31T16:54:07.627Z,12.81
2022-10-31T16:56:41.652Z,12.78
2022-10-31T16:59:16.337Z,12.75
2022-10-31T17:01:50.129Z,12.74
2022-10-31T17:04:20.151Z,12.73
2022-10-31T17:06:51.778Z,12.71
2022-10-31T17:09:28.207Z,12.69
2022-10-31T17:12:01.412Z,12.67
2022-10-31T17:14:31.224Z,12.66
2022-10-31T17:17:00.838Z,12.63
2022-10-31T17:19:32.926Z,12.61
2022-10-31T17:22:03.783Z,12.61
2022-10-31T17:24:35.546Z,12.60
2022-10-31T17:27:04.916Z,12.57
2022-10-31T17:29:34.287Z,12.52
2022-10-31T17:32:08.315Z,12.48
2022-10-31T17:34:42.044Z,12.45
2022-10-31T17:37:13.911Z,12.42
2022-10-31T17:39:43.030Z,12.44
2022-10-31T17:42:15.896Z,12.46
2022-10-31T17:44:47.666Z,12.48
2022-10-31T17:47:21.617Z,12.49
2022-10-31T17:49:53.547Z,12.48
2022-10-31T17:52:25.309Z,12.47
2022-10-31T17:54:56.400Z,12.48
2022-10-31T17:57:34.305Z,12.47
2022-10-31T18:00:08.360Z,12.48
2022-10-31T18:02:41.685Z,12.49
2022-10-31T18:05:12.565Z,12.49
2022-10-31T18:07:46.355Z,12.49
2022-10-31T18:10:15.977Z,12.49
2022-10-31T18:12:50.304Z,12.50
2022-10-31T18:15:20.805Z,12.50
2022-10-31T18:17:50.784Z,12.50
2022-10-31T18:20:20.547Z,12.49
2022-10-31T18:22:50.580Z,12.48
2022-10-31T18:25:20.038Z,12.49
2022-10-31T18:27:49.977Z,12.50
2022-10-31T18:30:21.964Z,12.52
2022-10-31T18:32:53.264Z,12.51
2022-10-31T18:35:23.411Z,12.50
2022-10-31T18:37:56.071Z,12.50
2022-10-31T18:40:28.475Z,12.49
2022-10-31T18:42:58.606Z,12.50
2022-10-31T18:45:58.428Z,12.51
2022-10-31T18:48:20.686Z,12.53
2022-10-31T18:50:50.422Z,12.57
2022-10-31T18:53:20.442Z,12.61
2022-10-31T18:55:50.774Z,12.66
2022-10-31T18:58:19.944Z,12.66
2022-10-31T19:00:52.278Z,12.62
2022-10-31T19:03:26.481Z,12.60
2022-10-31T19:10:14.936Z,12.45
2022-10-31T19:12:45.844Z,12.48
2022-10-31T19:15:18.606Z,12.49
2022-10-31T19:20:36.613Z,12.46
2022-10-31T19:23:06.878Z,12.46
2022-10-31T19:28:13.247Z,12.48
2022-10-31T19:30:42.802Z,12.49
2022-10-31T19:33:12.514Z,12.48
2022-10-31T19:35:46.032Z,12.49
2022-10-31T19:38:26.424Z,12.47
2022-10-31T19:41:01.434Z,12.48
2022-10-31T19:43:32.354Z,12.51
2022-10-31T19:46:06.197Z,12.54
2022-10-31T19:48:40.535Z,12.51
2022-10-31T19:51:13.880Z,12.51
2022-10-31T19:53:45.403Z,12.49
2022-10-31T19:56:17.124Z,12.49
2022-10-31T19:58:49.184Z,12.48
2022-10-31T20:01:23.438Z,12.39
2022-10-31T20:03:56.705Z,12.36
2022-10-31T20:06:57.482Z,12.34
2022-10-31T20:09:27.561Z,12.28
2022-10-31T20:11:59.087Z,12.23
2022-10-31T20:14:30.502Z,12.21
2022-10-31T20:17:03.125Z,12.23
2022-10-31T20:19:36.604Z,12.23
2022-10-31T20:22:07.484Z,12.22
2022-10-31T20:24:38.385Z,12.21
2022-10-31T20:27:09.819Z,12.20
2022-10-31T20:29:46.035Z,12.18
2022-10-31T20:32:47.537Z,12.15
2022-10-31T20:35:21.988Z,12.18
2022-10-31T20:37:52.696Z,12.20
2022-10-31T20:40:24.615Z,12.25
2022-10-31T20:42:57.125Z,12.24
2022-10-31T20:45:27.674Z,12.16
2022-10-31T20:48:02.572Z,12.13
2022-10-31T20:50:50.505Z,12.12
2022-10-31T20:53:22.564Z,12.14
2022-10-31T20:56:07.526Z,12.13
2022-10-31T20:58:56.612Z,12.14
2022-10-31T21:01:52.443Z,12.15
2022-10-31T21:05:25.961Z,12.14
2022-10-31T21:08:40.501Z,12.11
2022-10-31T21:11:36.964Z,12.08
2022-10-31T21:14:59.474Z,12.06
2022-10-31T21:18:00.534Z,11.98
2022-10-31T21:20:48.765Z,11.95
2022-10-31T21:30:32.964Z,11.98
2022-10-31T21:34:42.873Z,12.00
2022-10-31T21:36:43.813Z,12.02
2022-10-31T21:39:17.307Z,12.00
2022-10-31T21:41:52.892Z,12.04
2022-10-31T21:44:26.691Z,12.05
2022-10-31T21:47:00.310Z,12.07
2022-10-31T21:49:31.973Z,12.04
2022-10-31T21:52:03.603Z,12.05
2022-10-31T21:54:37.648Z,11.99
2022-10-31T21:57:07.017Z,11.91
2022-10-31T21:59:46.166Z,11.90
2022-10-31T22:02:18.310Z,11.89
2022-10-31T22:04:51.426Z,11.84
2022-10-31T22:07:46.950Z,11.81
2022-10-31T22:10:17.207Z,11.75
2022-10-31T22:12:46.976Z,11.66
2022-10-31T22:15:23.172Z,11.62
2022-10-31T22:17:54.688Z,11.59
2022-10-31T22:20:24.971Z,11.60
2022-10-31T22:22:54.321Z,11.60
2022-10-31T22:25:26.581Z,11.56
2022-10-31T22:27:55.560Z,11.53
2022-10-31T22:30:27.987Z,11.52
2022-10-31T22:32:57.092Z,11.55
2022-10-31T22:35:30.893Z,11.55
2022-10-31T22:38:01.668Z,11.57
2022-10-31T22:40:33.202Z,11.59
2022-10-31T22:43:04.305Z,11.61
2022-10-31T22:45:35.091Z,11.61
2022-10-31T22:48:05.673Z,11.61
2022-10-31T22:50:36.100Z,11.57
2022-10-31T22:53:07.577Z,11.58
2022-10-31T22:55:39.019Z,11.56
2022-10-31T22:58:09.681Z,11.57
2022-10-31T23:00:42.555Z,11.61
2022-10-31T23:03:14.590Z,11.61
2022-10-31T23:05:56.683Z,11.64
2022-10-31T23:08:29.945Z,11.62
2022-10-31T23:11:00.532Z,11.66
2022-10-31T23:13:51.381Z,11.74
2022-10-31T23:16:22.091Z,11.76
2022-10-31T23:18:51.341Z,11.76
2022-10-31T23:21:39.376Z,11.78
2022-10-31T23:24:11.005Z,11.81
2022-10-31T23:27:01.246Z,11.85
2022-10-31T23:29:33.331Z,11.85
2022-10-31T23:32:06.187Z,11.84
2022-10-31T23:34:38.687Z,11.86
2022-10-31T23:37:09.631Z,11.87
2022-10-31T23:39:41.794Z,11.84
2022-10-31T23:42:14.827Z,11.80
2022-10-31T23:44:44.095Z,11.79
2022-10-31T23:47:14.150Z,11.84
2022-10-31T23:49:44.049Z,11.87
2022-10-31T23:52:16.602Z,11.93
2022-10-31T23:54:46.368Z,11.99
2022-10-31T23:57:17.640Z,11.99
2022-10-31T23:59:49.277Z,11.99
